sensor_id;sensor_type;location;lat;lon;timestamp;temperature;humidity
4874;DHT22;2451;49.970;9.068;2023-03-22T00:00:25;7.70;99.90
4874;DHT22;2451;49.970;9.068;2023-03-22T00:02:54;7.60;99.90
4874;DHT22;2451;49.970;9.068;2023-03-22T00:05:20;7.60;99.90
4874;DHT22;2451;49.970;9.068;2023-03-22T00:07:47;7.60;99.90
4874;DHT22;2451;49.970;9.068;2023-03-22T00:10:18;7.60;99.90
4874;DHT22;2451;49.970;9.068;2023-03-22T00:12:44;7.50;99.90
4874;DHT22;2451;49.970;9.068;2023-03-22T00:15:11;7.50;99.90
4874;DHT22;2451;49.970;9.068;2023-03-22T00:17:36;7.50;99.90
4874;DHT22;2451;49.970;9.068;2023-03-22T00:20:03;7.50;99.90
4874;DHT22;2451;49.970;9.068;2023-03-22T00:22:31;7.40;99.90
4874;DHT22;2451;49.970;9.068;2023-03-22T00:24:57;7.40;99.90
4874;DHT22;2451;49.970;9.068;2023-03-22T00:27:22;7.40;99.90
4874;DHT22;2451;49.970;9.068;2023-03-22T00:29:51;7.40;99.90
4874;DHT22;2451;49.970;9.068;2023-03-22T00:32:16;7.40;99.90
4874;DHT22;2451;49.970;9.068;2023-03-22T00:34:42;7.40;99.90
4874;DHT22;2451;49.970;9.068;2023-03-22T00:37:08;7.40;99.90
4874;DHT22;2451;49.970;9.068;2023-03-22T00:39:33;7.40;99.90
4874;DHT22;2451;49.970;9.068;2023-03-22T00:41:59;7.40;99.90
4874;DHT22;2451;49.970;9.068;2023-03-22T00:44:24;7.40;99.90
4874;DHT22;2451;49.970;9.068;2023-03-22T00:46:50;7.40;99.90
4874;DHT22;2451;49.970;9.068;2023-03-22T00:49:15;7.40;99.90
4874;DHT22;2451;49.970;9.068;2023-03-22T00:51:41;7.40;99.90
4874;DHT22;2451;49.970;9.068;2023-03-22T00:54:06;7.40;99.90
4874;DHT22;2451;49.970;9.068;2023-03-22T00:56:32;7.40;99.90
4874;DHT22;2451;49.970;9.068;2023-03-22T00:58:58;7.40;99.90
4874;DHT22;2451;49.970;9.068;2023-03-22T01:01:24;7.30;99.90
4874;DHT22;2451;49.970;9.068;2023-03-22T01:03:50;7.30;99.90
4874;DHT22;2451;49.970;9.068;2023-03-22T01:06:15;7.40;99.90
4874;DHT22;2451;49.970;9.068;2023-03-22T01:08:41;7.40;99.90
4874;DHT22;2451;49.970;9.068;2023-03-22T01:11:08;7.40;99.90
4874;DHT22;2451;49.970;9.068;2023-03-22T01:13:35;7.40;99.90
4874;DHT22;2451;49.970;9.068;2023-03-22T01:16:06;7.40;99.90
4874;DHT22;2451;49.970;9.068;2023-03-22T01:18:31;7.40;99.90
4874;DHT22;2451;49.970;9.068;2023-03-22T01:20:58;7.50;99.90
4874;DHT22;2451;49.970;9.068;2023-03-22T01:23:23;7.50;99.90
4874;DHT22;2451;49.970;9.068;2023-03-22T01:25:49;7.50;99.90
4874;DHT22;2451;49.970;9.068;2023-03-22T01:28:15;7.50;99.90
4874;DHT22;2451;49.970;9.068;2023-03-22T01:30:40;7.60;99.90
4874;DHT22;2451;49.970;9.068;2023-03-22T01:33:06;7.60;99.90
4874;DHT22;2451;49.970;9.068;2023-03-22T01:35:33;7.60;99.90
4874;DHT22;2451;49.970;9.068;2023-03-22T01:37:58;7.60;99.90
4874;DHT22;2451;49.970;9.068;2023-03-22T01:40:25;7.60;99.90
4874;DHT22;2451;49.970;9.068;2023-03-22T01:42:52;7.60;99.90
4874;DHT22;2451;49.970;9.068;2023-03-22T01:45:39;7.70;99.90
4874;DHT22;2451;49.970;9.068;2023-03-22T01:48:09;7.70;99.90
4874;DHT22;2451;49.970;9.068;2023-03-22T01:50:37;7.70;99.90
4874;DHT22;2451;49.970;9.068;2023-03-22T01:53:04;7.70;99.90
4874;DHT22;2451;49.970;9.068;2023-03-22T01:55:32;7.70;99.90
4874;DHT22;2451;49.970;9.068;2023-03-22T01:57:58;7.70;99.90
4874;DHT22;2451;49.970;9.068;2023-03-22T02:00:25;7.70;99.90
4874;DHT22;2451;49.970;9.068;2023-03-22T02:02:51;7.70;99.90
4874;DHT22;2451;49.970;9.068;2023-03-22T02:05:18;7.60;99.90
4874;DHT22;2451;49.970;9.068;2023-03-22T02:07:46;7.60;99.90
4874;DHT22;2451;49.970;9.068;2023-03-22T02:10:15;7.60;99.90
4874;DHT22;2451;49.970;9.068;2023-03-22T02:12:44;7.60;99.90
4874;DHT22;2451;49.970;9.068;2023-03-22T02:20:38;7.60;99.90
4874;DHT22;2451;49.970;9.068;2023-03-22T02:26:09;7.50;99.90
4874;DHT22;2451;49.970;9.068;2023-03-22T02:29:02;7.50;99.90
4874;DHT22;2451;49.970;9.068;2023-03-22T02:43:27;7.50;99.90
4874;DHT22;2451;49.970;9.068;2023-03-22T02:48:51;7.50;99.90
4874;DHT22;2451;49.970;9.068;2023-03-22T02:51:22;7.50;99.90
4874;DHT22;2451;49.970;9.068;2023-03-22T02:54:02;7.50;99.90
4874;DHT22;2451;49.970;9.068;2023-03-22T02:56:46;7.50;99.90
4874;DHT22;2451;49.970;9.068;2023-03-22T02:59:13;7.60;99.90
4874;DHT22;2451;49.970;9.068;2023-03-22T03:01:44;7.60;99.90
4874;DHT22;2451;49.970;9.068;2023-03-22T03:04:14;7.60;99.90
4874;DHT22;2451;49.970;9.068;2023-03-22T03:06:42;7.60;99.90
4874;DHT22;2451;49.970;9.068;2023-03-22T03:09:12;7.60;99.90
4874;DHT22;2451;49.970;9.068;2023-03-22T03:11:44;7.60;99.90
4874;DHT22;2451;49.970;9.068;2023-03-22T03:14:19;7.60;99.90
4874;DHT22;2451;49.970;9.068;2023-03-22T03:16:45;7.60;99.90
4874;DHT22;2451;49.970;9.068;2023-03-22T03:19:23;7.60;99.90
4874;DHT22;2451;49.970;9.068;2023-03-22T03:22:04;7.60;99.90
4874;DHT22;2451;49.970;9.068;2023-03-22T03:24:46;7.60;99.90
4874;DHT22;2451;49.970;9.068;2023-03-22T03:27:40;7.60;99.90
4874;DHT22;2451;49.970;9.068;2023-03-22T03:30:12;7.60;99.90
4874;DHT22;2451;49.970;9.068;2023-03-22T03:32:45;7.60;99.90
4874;DHT22;2451;49.970;9.068;2023-03-22T03:37:58;7.60;99.90
4874;DHT22;2451;49.970;9.068;2023-03-22T03:40:32;7.70;99.90
4874;DHT22;2451;49.970;9.068;2023-03-22T03:43:01;7.70;99.90
4874;DHT22;2451;49.970;9.068;2023-03-22T03:45:27;7.80;99.90
4874;DHT22;2451;49.970;9.068;2023-03-22T03:47:56;7.80;99.90
4874;DHT22;2451;49.970;9.068;2023-03-22T03:50:24;7.90;99.90
4874;DHT22;2451;49.970;9.068;2023-03-22T03:52:51;7.80;99.90
4874;DHT22;2451;49.970;9.068;2023-03-22T03:55:18;7.80;99.90
4874;DHT22;2451;49.970;9.068;2023-03-22T03:57:44;7.80;99.90
4874;DHT22;2451;49.970;9.068;2023-03-22T04:00:11;7.80;99.90
4874;DHT22;2451;49.970;9.068;2023-03-22T04:02:41;7.80;99.90
4874;DHT22;2451;49.970;9.068;2023-03-22T04:05:08;7.80;99.90
4874;DHT22;2451;49.970;9.068;2023-03-22T04:07:34;7.80;99.90
4874;DHT22;2451;49.970;9.068;2023-03-22T04:09:59;7.80;99.90
4874;DHT22;2451;49.970;9.068;2023-03-22T04:12:25;7.90;99.90
4874;DHT22;2451;49.970;9.068;2023-03-22T04:14:50;7.90;99.90
4874;DHT22;2451;49.970;9.068;2023-03-22T04:17:16;7.90;99.90
4874;DHT22;2451;49.970;9.068;2023-03-22T04:19:41;7.90;99.90
4874;DHT22;2451;49.970;9.068;2023-03-22T04:22:09;7.90;99.90
4874;DHT22;2451;49.970;9.068;2023-03-22T04:24:41;7.90;99.90
4874;DHT22;2451;49.970;9.068;2023-03-22T04:27:07;7.90;99.90
4874;DHT22;2451;49.970;9.068;2023-03-22T04:29:33;7.90;99.90
4874;DHT22;2451;49.970;9.068;2023-03-22T04:32:01;7.90;99.90
4874;DHT22;2451;49.970;9.068;2023-03-22T04:34:27;7.90;99.90
4874;DHT22;2451;49.970;9.068;2023-03-22T04:36:53;7.90;99.90
4874;DHT22;2451;49.970;9.068;2023-03-22T04:39:19;7.90;99.90
4874;DHT22;2451;49.970;9.068;2023-03-22T04:41:44;7.90;99.90
4874;DHT22;2451;49.970;9.068;2023-03-22T04:44:10;7.90;99.90
4874;DHT22;2451;49.970;9.068;2023-03-22T04:46:36;8.00;99.90
4874;DHT22;2451;49.970;9.068;2023-03-22T04:49:03;8.00;99.90
4874;DHT22;2451;49.970;9.068;2023-03-22T04:51:29;8.00;99.90
4874;DHT22;2451;49.970;9.068;2023-03-22T04:53:56;7.90;99.90
4874;DHT22;2451;49.970;9.068;2023-03-22T04:56:23;8.00;99.90
4874;DHT22;2451;49.970;9.068;2023-03-22T04:58:49;8.00;99.90
4874;DHT22;2451;49.970;9.068;2023-03-22T05:01:16;8.00;99.90
4874;DHT22;2451;49.970;9.068;2023-03-22T05:03:42;8.00;99.90
4874;DHT22;2451;49.970;9.068;2023-03-22T05:06:10;8.00;99.90
4874;DHT22;2451;49.970;9.068;2023-03-22T05:08:36;8.00;99.90
4874;DHT22;2451;49.970;9.068;2023-03-22T05:11:16;8.00;99.90
4874;DHT22;2451;49.970;9.068;2023-03-22T05:13:43;8.00;99.90
4874;DHT22;2451;49.970;9.068;2023-03-22T05:16:09;8.00;99.90
4874;DHT22;2451;49.970;9.068;2023-03-22T05:18:35;8.00;99.90
4874;DHT22;2451;49.970;9.068;2023-03-22T05:21:11;8.00;99.90
4874;DHT22;2451;49.970;9.068;2023-03-22T05:23:43;7.90;99.90
4874;DHT22;2451;49.970;9.068;2023-03-22T05:26:09;8.00;99.90
4874;DHT22;2451;49.970;9.068;2023-03-22T05:28:35;7.90;99.90
4874;DHT22;2451;49.970;9.068;2023-03-22T05:31:01;7.90;99.90
4874;DHT22;2451;49.970;9.068;2023-03-22T05:33:27;7.90;99.90
4874;DHT22;2451;49.970;9.068;2023-03-22T05:35:54;7.90;99.90
4874;DHT22;2451;49.970;9.068;2023-03-22T05:38:20;7.90;99.90
4874;DHT22;2451;49.970;9.068;2023-03-22T05:40:49;7.90;99.90
4874;DHT22;2451;49.970;9.068;2023-03-22T05:43:15;7.90;99.90
4874;DHT22;2451;49.970;9.068;2023-03-22T05:45:41;7.90;99.90
4874;DHT22;2451;49.970;9.068;2023-03-22T05:48:06;7.80;99.90
4874;DHT22;2451;49.970;9.068;2023-03-22T05:50:33;7.80;99.90
4874;DHT22;2451;49.970;9.068;2023-03-22T05:52:59;7.80;99.90
4874;DHT22;2451;49.970;9.068;2023-03-22T05:55:25;7.80;99.90
4874;DHT22;2451;49.970;9.068;2023-03-22T05:57:51;7.80;99.90
4874;DHT22;2451;49.970;9.068;2023-03-22T06:00:19;7.90;99.90
4874;DHT22;2451;49.970;9.068;2023-03-22T06:02:47;7.90;99.90
4874;DHT22;2451;49.970;9.068;2023-03-22T06:05:14;7.90;99.90
4874;DHT22;2451;49.970;9.068;2023-03-22T06:07:41;7.90;99.90
4874;DHT22;2451;49.970;9.068;2023-03-22T06:10:08;7.90;99.90
4874;DHT22;2451;49.970;9.068;2023-03-22T06:12:35;8.00;99.90
4874;DHT22;2451;49.970;9.068;2023-03-22T06:15:01;7.90;99.90
4874;DHT22;2451;49.970;9.068;2023-03-22T06:17:27;8.00;99.90
4874;DHT22;2451;49.970;9.068;2023-03-22T06:19:52;8.00;99.90
4874;DHT22;2451;49.970;9.068;2023-03-22T06:22:21;8.10;99.90
4874;DHT22;2451;49.970;9.068;2023-03-22T06:24:48;8.10;99.90
4874;DHT22;2451;49.970;9.068;2023-03-22T06:27:14;8.10;99.90
4874;DHT22;2451;49.970;9.068;2023-03-22T06:29:40;8.20;99.90
4874;DHT22;2451;49.970;9.068;2023-03-22T06:32:06;8.20;99.90
4874;DHT22;2451;49.970;9.068;2023-03-22T06:34:46;8.20;99.90
4874;DHT22;2451;49.970;9.068;2023-03-22T06:37:12;8.30;99.90
4874;DHT22;2451;49.970;9.068;2023-03-22T06:39:37;8.40;99.90
4874;DHT22;2451;49.970;9.068;2023-03-22T06:42:03;8.50;99.90
4874;DHT22;2451;49.970;9.068;2023-03-22T06:44:28;8.80;99.90
4874;DHT22;2451;49.970;9.068;2023-03-22T06:46:54;9.20;99.90
4874;DHT22;2451;49.970;9.068;2023-03-22T06:49:20;9.70;99.90
4874;DHT22;2451;49.970;9.068;2023-03-22T06:51:46;10.10;99.90
4874;DHT22;2451;49.970;9.068;2023-03-22T06:54:11;10.60;99.90
4874;DHT22;2451;49.970;9.068;2023-03-22T06:56:37;11.00;99.90
4874;DHT22;2451;49.970;9.068;2023-03-22T06:59:03;11.30;99.90
4874;DHT22;2451;49.970;9.068;2023-03-22T07:01:28;11.50;99.90
4874;DHT22;2451;49.970;9.068;2023-03-22T07:03:54;11.70;99.90
4874;DHT22;2451;49.970;9.068;2023-03-22T07:06:19;12.00;99.90
4874;DHT22;2451;49.970;9.068;2023-03-22T07:08:45;12.20;99.90
4874;DHT22;2451;49.970;9.068;2023-03-22T07:11:10;12.40;99.90
4874;DHT22;2451;49.970;9.068;2023-03-22T07:13:36;12.60;99.90
4874;DHT22;2451;49.970;9.068;2023-03-22T07:16:01;12.70;99.90
4874;DHT22;2451;49.970;9.068;2023-03-22T07:18:28;12.80;99.90
4874;DHT22;2451;49.970;9.068;2023-03-22T07:20:54;13.00;99.90
4874;DHT22;2451;49.970;9.068;2023-03-22T07:23:20;13.10;99.90
4874;DHT22;2451;49.970;9.068;2023-03-22T07:25:46;13.30;99.90
4874;DHT22;2451;49.970;9.068;2023-03-22T07:28:13;13.50;99.90
4874;DHT22;2451;49.970;9.068;2023-03-22T07:30:40;13.70;99.90
4874;DHT22;2451;49.970;9.068;2023-03-22T07:33:07;13.90;99.90
4874;DHT22;2451;49.970;9.068;2023-03-22T07:35:33;14.10;99.90
4874;DHT22;2451;49.970;9.068;2023-03-22T07:37:59;14.20;99.90
4874;DHT22;2451;49.970;9.068;2023-03-22T07:40:25;14.40;99.90
4874;DHT22;2451;49.970;9.068;2023-03-22T07:42:51;14.30;99.90
4874;DHT22;2451;49.970;9.068;2023-03-22T07:45:18;14.30;99.90
4874;DHT22;2451;49.970;9.068;2023-03-22T07:47:44;14.30;99.90
4874;DHT22;2451;49.970;9.068;2023-03-22T07:50:11;14.30;99.90
4874;DHT22;2451;49.970;9.068;2023-03-22T07:52:38;14.10;99.90
4874;DHT22;2451;49.970;9.068;2023-03-22T07:55:04;14.00;99.90
4874;DHT22;2451;49.970;9.068;2023-03-22T07:57:30;13.90;99.90
4874;DHT22;2451;49.970;9.068;2023-03-22T07:59:55;13.80;99.90
4874;DHT22;2451;49.970;9.068;2023-03-22T08:02:21;13.80;99.90
4874;DHT22;2451;49.970;9.068;2023-03-22T08:04:47;13.70;99.90
4874;DHT22;2451;49.970;9.068;2023-03-22T08:07:15;13.70;99.90
4874;DHT22;2451;49.970;9.068;2023-03-22T08:09:43;13.60;99.90
4874;DHT22;2451;49.970;9.068;2023-03-22T08:12:09;13.60;99.90
4874;DHT22;2451;49.970;9.068;2023-03-22T08:14:35;13.60;99.90
4874;DHT22;2451;49.970;9.068;2023-03-22T08:17:02;13.70;99.90
4874;DHT22;2451;49.970;9.068;2023-03-22T08:19:28;13.70;99.90
4874;DHT22;2451;49.970;9.068;2023-03-22T08:21:53;13.70;99.90
4874;DHT22;2451;49.970;9.068;2023-03-22T08:24:19;13.70;99.90
4874;DHT22;2451;49.970;9.068;2023-03-22T08:26:45;13.90;99.90
4874;DHT22;2451;49.970;9.068;2023-03-22T08:29:15;14.00;99.90
4874;DHT22;2451;49.970;9.068;2023-03-22T08:31:41;13.90;99.90
4874;DHT22;2451;49.970;9.068;2023-03-22T08:34:07;14.00;99.90
4874;DHT22;2451;49.970;9.068;2023-03-22T08:36:33;14.00;99.90
4874;DHT22;2451;49.970;9.068;2023-03-22T08:38:59;14.10;99.90
4874;DHT22;2451;49.970;9.068;2023-03-22T08:41:26;14.30;99.90
4874;DHT22;2451;49.970;9.068;2023-03-22T08:43:51;14.30;99.90
4874;DHT22;2451;49.970;9.068;2023-03-22T08:46:17;14.40;99.90
4874;DHT22;2451;49.970;9.068;2023-03-22T08:48:42;14.60;99.90
4874;DHT22;2451;49.970;9.068;2023-03-22T08:51:18;14.80;99.90
4874;DHT22;2451;49.970;9.068;2023-03-22T08:53:45;14.70;99.90
4874;DHT22;2451;49.970;9.068;2023-03-22T08:56:11;14.70;99.90
4874;DHT22;2451;49.970;9.068;2023-03-22T08:58:39;14.60;99.90
4874;DHT22;2451;49.970;9.068;2023-03-22T09:01:09;14.60;99.90
4874;DHT22;2451;49.970;9.068;2023-03-22T09:03:35;14.60;99.90
4874;DHT22;2451;49.970;9.068;2023-03-22T09:06:02;14.80;99.90
4874;DHT22;2451;49.970;9.068;2023-03-22T09:08:27;15.10;99.90
4874;DHT22;2451;49.970;9.068;2023-03-22T09:10:53;15.30;99.90
4874;DHT22;2451;49.970;9.068;2023-03-22T09:13:19;15.30;99.90
4874;DHT22;2451;49.970;9.068;2023-03-22T09:15:45;15.20;99.90
4874;DHT22;2451;49.970;9.068;2023-03-22T09:18:10;15.30;99.90
4874;DHT22;2451;49.970;9.068;2023-03-22T09:20:36;15.40;99.90
4874;DHT22;2451;49.970;9.068;2023-03-22T09:23:02;15.60;99.90
4874;DHT22;2451;49.970;9.068;2023-03-22T09:25:28;15.60;99.90
4874;DHT22;2451;49.970;9.068;2023-03-22T09:27:53;15.50;99.90
4874;DHT22;2451;49.970;9.068;2023-03-22T09:30:19;15.30;99.90
4874;DHT22;2451;49.970;9.068;2023-03-22T09:32:44;15.40;99.90
4874;DHT22;2451;49.970;9.068;2023-03-22T09:35:10;15.40;99.90
4874;DHT22;2451;49.970;9.068;2023-03-22T09:37:35;15.20;99.90
4874;DHT22;2451;49.970;9.068;2023-03-22T09:40:01;15.40;99.90
4874;DHT22;2451;49.970;9.068;2023-03-22T09:42:39;15.70;99.90
4874;DHT22;2451;49.970;9.068;2023-03-22T09:45:12;16.30;99.90
4874;DHT22;2451;49.970;9.068;2023-03-22T09:47:43;16.40;99.90
4874;DHT22;2451;49.970;9.068;2023-03-22T09:50:25;16.40;99.90
4874;DHT22;2451;49.970;9.068;2023-03-22T09:52:52;16.40;99.90
4874;DHT22;2451;49.970;9.068;2023-03-22T09:55:36;16.60;99.90
4874;DHT22;2451;49.970;9.068;2023-03-22T09:58:19;16.70;99.90
4874;DHT22;2451;49.970;9.068;2023-03-22T10:00:56;16.70;99.90
4874;DHT22;2451;49.970;9.068;2023-03-22T10:04:00;16.70;99.90
4874;DHT22;2451;49.970;9.068;2023-03-22T10:06:30;16.90;99.90
4874;DHT22;2451;49.970;9.068;2023-03-22T10:12:14;16.40;99.90
4874;DHT22;2451;49.970;9.068;2023-03-22T10:15:01;16.40;99.90
4874;DHT22;2451;49.970;9.068;2023-03-22T10:17:28;16.20;99.90
4874;DHT22;2451;49.970;9.068;2023-03-22T10:20:32;16.70;99.90
4874;DHT22;2451;49.970;9.068;2023-03-22T10:23:04;17.10;99.90
4874;DHT22;2451;49.970;9.068;2023-03-22T10:25:37;17.60;99.90
4874;DHT22;2451;49.970;9.068;2023-03-22T10:28:20;17.80;99.90
4874;DHT22;2451;49.970;9.068;2023-03-22T10:30:51;17.80;99.90
4874;DHT22;2451;49.970;9.068;2023-03-22T10:36:09;17.20;99.90
4874;DHT22;2451;49.970;9.068;2023-03-22T10:38:48;16.90;99.90
4874;DHT22;2451;49.970;9.068;2023-03-22T10:41:18;16.80;99.90
4874;DHT22;2451;49.970;9.068;2023-03-22T10:43:52;16.70;99.90
4874;DHT22;2451;49.970;9.068;2023-03-22T10:46:22;16.90;99.90
4874;DHT22;2451;49.970;9.068;2023-03-22T10:48:50;16.90;99.90
4874;DHT22;2451;49.970;9.068;2023-03-22T10:51:28;16.90;99.90
4874;DHT22;2451;49.970;9.068;2023-03-22T10:53:55;16.80;99.90
4874;DHT22;2451;49.970;9.068;2023-03-22T10:56:23;16.70;99.90
4874;DHT22;2451;49.970;9.068;2023-03-22T10:58:49;16.60;99.90
4874;DHT22;2451;49.970;9.068;2023-03-22T11:01:25;16.50;99.90
4874;DHT22;2451;49.970;9.068;2023-03-22T11:03:56;16.30;99.90
4874;DHT22;2451;49.970;9.068;2023-03-22T11:06:24;16.40;99.90
4874;DHT22;2451;49.970;9.068;2023-03-22T11:08:57;16.70;99.90
4874;DHT22;2451;49.970;9.068;2023-03-22T11:11:33;17.10;99.90
4874;DHT22;2451;49.970;9.068;2023-03-22T11:14:17;17.30;99.90
4874;DHT22;2451;49.970;9.068;2023-03-22T11:19:24;17.80;99.90
4874;DHT22;2451;49.970;9.068;2023-03-22T11:21:52;18.10;99.90
4874;DHT22;2451;49.970;9.068;2023-03-22T11:24:18;18.40;99.90
4874;DHT22;2451;49.970;9.068;2023-03-22T11:27:02;18.80;99.90
4874;DHT22;2451;49.970;9.068;2023-03-22T11:29:28;18.80;99.90
4874;DHT22;2451;49.970;9.068;2023-03-22T11:31:57;18.90;99.90
4874;DHT22;2451;49.970;9.068;2023-03-22T11:34:26;19.10;99.90
4874;DHT22;2451;49.970;9.068;2023-03-22T11:36:52;19.20;99.90
4874;DHT22;2451;49.970;9.068;2023-03-22T11:39:25;19.20;99.90
4874;DHT22;2451;49.970;9.068;2023-03-22T11:41:57;19.10;99.70
4874;DHT22;2451;49.970;9.068;2023-03-22T11:44:26;18.80;99.90
4874;DHT22;2451;49.970;9.068;2023-03-22T11:46:54;18.90;99.90
4874;DHT22;2451;49.970;9.068;2023-03-22T11:49:23;19.10;99.90
4874;DHT22;2451;49.970;9.068;2023-03-22T11:51:52;19.00;99.10
4874;DHT22;2451;49.970;9.068;2023-03-22T11:54:29;18.80;99.50
4874;DHT22;2451;49.970;9.068;2023-03-22T11:57:02;19.40;99.90
4874;DHT22;2451;49.970;9.068;2023-03-22T11:59:44;19.30;98.80
4874;DHT22;2451;49.970;9.068;2023-03-22T12:04:58;18.80;99.10
4874;DHT22;2451;49.970;9.068;2023-03-22T12:07:28;18.30;99.80
4874;DHT22;2451;49.970;9.068;2023-03-22T12:10:13;18.20;99.90
4874;DHT22;2451;49.970;9.068;2023-03-22T12:12:45;18.20;99.90
4874;DHT22;2451;49.970;9.068;2023-03-22T12:15:28;18.40;99.90
4874;DHT22;2451;49.970;9.068;2023-03-22T12:18:14;18.60;99.90
4874;DHT22;2451;49.970;9.068;2023-03-22T12:20:54;18.80;99.90
4874;DHT22;2451;49.970;9.068;2023-03-22T12:23:25;19.20;99.90
4874;DHT22;2451;49.970;9.068;2023-03-22T12:25:59;19.80;99.90
4874;DHT22;2451;49.970;9.068;2023-03-22T12:28:55;19.70;98.40
4874;DHT22;2451;49.970;9.068;2023-03-22T12:31:31;19.40;98.30
4874;DHT22;2451;49.970;9.068;2023-03-22T12:34:03;19.30;99.20
4874;DHT22;2451;49.970;9.068;2023-03-22T12:36:40;19.40;99.70
4874;DHT22;2451;49.970;9.068;2023-03-22T12:39:12;19.70;99.20
4874;DHT22;2451;49.970;9.068;2023-03-22T12:41:43;20.00;99.00
4874;DHT22;2451;49.970;9.068;2023-03-22T12:44:31;19.80;98.20
4874;DHT22;2451;49.970;9.068;2023-03-22T12:47:05;19.90;97.40
4874;DHT22;2451;49.970;9.068;2023-03-22T12:52:37;20.50;98.10
4874;DHT22;2451;49.970;9.068;2023-03-22T12:55:05;20.50;96.80
4874;DHT22;2451;49.970;9.068;2023-03-22T12:57:31;20.50;96.80
4874;DHT22;2451;49.970;9.068;2023-03-22T12:59:58;20.50;95.90
4874;DHT22;2451;49.970;9.068;2023-03-22T13:02:33;20.20;97.00
4874;DHT22;2451;49.970;9.068;2023-03-22T13:05:02;20.30;96.30
4874;DHT22;2451;49.970;9.068;2023-03-22T13:18:30;19.60;97.50
4874;DHT22;2451;49.970;9.068;2023-03-22T13:21:19;19.60;97.10
4874;DHT22;2451;49.970;9.068;2023-03-22T13:26:51;19.40;97.60
4874;DHT22;2451;49.970;9.068;2023-03-22T13:29:23;19.70;97.80
4874;DHT22;2451;49.970;9.068;2023-03-22T13:31:57;19.90;97.10
4874;DHT22;2451;49.970;9.068;2023-03-22T13:34:50;20.10;96.60
4874;DHT22;2451;49.970;9.068;2023-03-22T13:40:13;20.30;95.00
4874;DHT22;2451;49.970;9.068;2023-03-22T13:42:39;20.20;95.20
4874;DHT22;2451;49.970;9.068;2023-03-22T13:45:29;20.00;94.90
4874;DHT22;2451;49.970;9.068;2023-03-22T13:50:28;20.20;95.60
4874;DHT22;2451;49.970;9.068;2023-03-22T13:58:48;20.20;95.30
4874;DHT22;2451;49.970;9.068;2023-03-22T14:01:27;20.20;95.40
4874;DHT22;2451;49.970;9.068;2023-03-22T14:03:57;20.20;94.70
4874;DHT22;2451;49.970;9.068;2023-03-22T14:06:34;20.20;95.10
4874;DHT22;2451;49.970;9.068;2023-03-22T14:09:11;20.20;94.90
4874;DHT22;2451;49.970;9.068;2023-03-22T14:11:45;20.30;94.50
4874;DHT22;2451;49.970;9.068;2023-03-22T14:14:23;20.60;94.10
4874;DHT22;2451;49.970;9.068;2023-03-22T14:17:03;20.30;94.50
4874;DHT22;2451;49.970;9.068;2023-03-22T14:19:32;20.10;94.30
4874;DHT22;2451;49.970;9.068;2023-03-22T14:22:02;20.00;94.10
4874;DHT22;2451;49.970;9.068;2023-03-22T14:24:30;20.00;95.30
4874;DHT22;2451;49.970;9.068;2023-03-22T14:26:58;20.20;94.90
4874;DHT22;2451;49.970;9.068;2023-03-22T14:29:27;20.30;94.60
4874;DHT22;2451;49.970;9.068;2023-03-22T14:31:58;20.30;94.60
4874;DHT22;2451;49.970;9.068;2023-03-22T14:34:27;20.30;94.20
4874;DHT22;2451;49.970;9.068;2023-03-22T14:36:59;20.20;94.20
4874;DHT22;2451;49.970;9.068;2023-03-22T14:39:37;20.30;94.30
4874;DHT22;2451;49.970;9.068;2023-03-22T14:42:26;20.40;93.10
4874;DHT22;2451;49.970;9.068;2023-03-22T14:44:54;20.20;93.10
4874;DHT22;2451;49.970;9.068;2023-03-22T14:49:55;19.80;90.20
4874;DHT22;2451;49.970;9.068;2023-03-22T14:52:27;19.70;90.00
4874;DHT22;2451;49.970;9.068;2023-03-22T14:55:03;19.50;90.50
4874;DHT22;2451;49.970;9.068;2023-03-22T14:57:35;19.60;90.10
4874;DHT22;2451;49.970;9.068;2023-03-22T15:00:05;19.70;90.20
4874;DHT22;2451;49.970;9.068;2023-03-22T15:02:42;19.80;90.90
4874;DHT22;2451;49.970;9.068;2023-03-22T15:05:12;19.70;90.80
4874;DHT22;2451;49.970;9.068;2023-03-22T15:07:46;19.90;91.20
4874;DHT22;2451;49.970;9.068;2023-03-22T15:10:14;19.90;90.70
4874;DHT22;2451;49.970;9.068;2023-03-22T15:12:42;19.90;90.20
4874;DHT22;2451;49.970;9.068;2023-03-22T15:15:09;19.80;90.10
4874;DHT22;2451;49.970;9.068;2023-03-22T15:17:36;19.80;90.00
4874;DHT22;2451;49.970;9.068;2023-03-22T15:20:02;19.90;90.00
4874;DHT22;2451;49.970;9.068;2023-03-22T15:22:30;19.90;86.10
4874;DHT22;2451;49.970;9.068;2023-03-22T15:25:01;19.90;86.40
4874;DHT22;2451;49.970;9.068;2023-03-22T15:27:29;19.80;85.80
4874;DHT22;2451;49.970;9.068;2023-03-22T15:29:55;19.70;85.60
4874;DHT22;2451;49.970;9.068;2023-03-22T15:32:22;19.70;86.40
4874;DHT22;2451;49.970;9.068;2023-03-22T15:34:50;19.60;86.00
4874;DHT22;2451;49.970;9.068;2023-03-22T15:37:27;19.40;85.80
4874;DHT22;2451;49.970;9.068;2023-03-22T15:39:55;19.20;86.30
4874;DHT22;2451;49.970;9.068;2023-03-22T15:42:33;19.10;87.10
4874;DHT22;2451;49.970;9.068;2023-03-22T15:45:12;18.90;86.70
4874;DHT22;2451;49.970;9.068;2023-03-22T15:47:45;18.80;88.20
4874;DHT22;2451;49.970;9.068;2023-03-22T15:50:15;18.70;88.60
4874;DHT22;2451;49.970;9.068;2023-03-22T15:53:10;18.70;88.10
4874;DHT22;2451;49.970;9.068;2023-03-22T15:55:48;18.60;89.70
4874;DHT22;2451;49.970;9.068;2023-03-22T15:58:29;18.60;89.00
4874;DHT22;2451;49.970;9.068;2023-03-22T16:01:14;18.50;89.70
4874;DHT22;2451;49.970;9.068;2023-03-22T16:03:44;18.40;89.50
4874;DHT22;2451;49.970;9.068;2023-03-22T16:06:12;18.40;90.20
4874;DHT22;2451;49.970;9.068;2023-03-22T16:08:37;18.30;90.40
4874;DHT22;2451;49.970;9.068;2023-03-22T16:11:04;18.20;90.40
4874;DHT22;2451;49.970;9.068;2023-03-22T16:13:30;18.20;90.50
4874;DHT22;2451;49.970;9.068;2023-03-22T16:15:56;18.10;90.80
4874;DHT22;2451;49.970;9.068;2023-03-22T16:18:23;18.00;91.10
4874;DHT22;2451;49.970;9.068;2023-03-22T16:20:50;18.00;91.10
4874;DHT22;2451;49.970;9.068;2023-03-22T16:23:21;17.90;91.40
4874;DHT22;2451;49.970;9.068;2023-03-22T16:25:47;17.90;91.30
4874;DHT22;2451;49.970;9.068;2023-03-22T16:28:13;17.80;91.30
4874;DHT22;2451;49.970;9.068;2023-03-22T16:30:39;17.70;91.70
4874;DHT22;2451;49.970;9.068;2023-03-22T16:33:05;17.70;92.20
4874;DHT22;2451;49.970;9.068;2023-03-22T16:35:32;17.70;92.10
4874;DHT22;2451;49.970;9.068;2023-03-22T16:37:58;17.60;92.40
4874;DHT22;2451;49.970;9.068;2023-03-22T16:40:27;17.50;92.40
4874;DHT22;2451;49.970;9.068;2023-03-22T16:42:55;17.50;92.80
4874;DHT22;2451;49.970;9.068;2023-03-22T16:45:32;17.40;92.80
4874;DHT22;2451;49.970;9.068;2023-03-22T16:47:59;17.40;93.20
4874;DHT22;2451;49.970;9.068;2023-03-22T16:50:27;17.40;93.00
4874;DHT22;2451;49.970;9.068;2023-03-22T16:52:53;17.30;93.30
4874;DHT22;2451;49.970;9.068;2023-03-22T16:55:24;17.30;93.70
4874;DHT22;2451;49.970;9.068;2023-03-22T16:57:51;17.20;94.00
4874;DHT22;2451;49.970;9.068;2023-03-22T17:00:18;17.20;94.00
4874;DHT22;2451;49.970;9.068;2023-03-22T17:02:50;17.20;94.30
4874;DHT22;2451;49.970;9.068;2023-03-22T17:05:18;17.10;94.20
4874;DHT22;2451;49.970;9.068;2023-03-22T17:07:45;17.10;94.50
4874;DHT22;2451;49.970;9.068;2023-03-22T17:10:12;17.10;95.20
4874;DHT22;2451;49.970;9.068;2023-03-22T17:12:39;17.00;95.10
4874;DHT22;2451;49.970;9.068;2023-03-22T17:15:29;17.00;94.90
4874;DHT22;2451;49.970;9.068;2023-03-22T17:17:57;16.90;95.30
4874;DHT22;2451;49.970;9.068;2023-03-22T17:20:24;16.90;95.60
4874;DHT22;2451;49.970;9.068;2023-03-22T17:22:52;16.80;96.80
4874;DHT22;2451;49.970;9.068;2023-03-22T17:25:20;16.80;98.50
4874;DHT22;2451;49.970;9.068;2023-03-22T17:27:46;16.70;97.30
4874;DHT22;2451;49.970;9.068;2023-03-22T17:30:13;16.50;98.70